Time;durP1;ratioP1;P1;durP2;ratioP2;P2;SDS_P1;SDS_P2;PMS_P1;PMS_P2;Temp;Humidity;BMP_temperature;BMP_pressure;BME280_temperature;BME280_humidity;BME280_pressure;Samples;Min_cycle;Max_cycle;Signal;HPM_P1;HPM_P2
2022/12/16 00:00:23;;;;;;;96.15;46.50;;;-4.50;85.40;;;;;;5070777;28;20422;-74
2022/12/16 00:02:49;;;;;;;91.97;46.10;;;-4.40;85.00;;;;;;5069984;28;20744;-73
2022/12/16 00:05:15;;;;;;;89.15;44.40;;;-4.40;84.70;;;;;;5070569;28;20396;-73
2022/12/16 00:07:41;;;;;;;89.27;46.13;;;-4.30;84.40;;;;;;5070800;28;20410;-73
2022/12/16 00:10:07;;;;;;;98.10;46.78;;;-4.30;85.20;;;;;;5074691;28;20899;-73
2022/12/16 00:12:33;;;;;;;93.78;46.50;;;-4.20;85.80;;;;;;5073934;28;20429;-73
2022/12/16 00:14:59;;;;;;;91.13;46.77;;;-4.20;85.90;;;;;;5074425;28;20392;-73
2022/12/16 00:17:24;;;;;;;89.28;44.85;;;-4.20;85.70;;;;;;5074683;28;20388;-73
2022/12/16 00:19:50;;;;;;;85.80;43.37;;;-4.10;85.90;;;;;;5074923;28;20395;-73
2022/12/16 00:22:16;;;;;;;90.13;44.93;;;-4.20;85.40;;;;;;5073782;28;20808;-73
2022/12/16 00:24:41;;;;;;;96.07;46.78;;;-4.20;86.00;;;;;;5074123;28;20383;-73
2022/12/16 00:27:07;;;;;;;86.37;45.30;;;-4.10;85.40;;;;;;5074179;28;20384;-74
2022/12/16 00:29:33;;;;;;;91.25;47.75;;;-4.10;86.10;;;;;;5074754;28;20404;-74
2022/12/16 00:31:59;;;;;;;92.90;46.63;;;-4.10;86.30;;;;;;5074245;28;20388;-73
2022/12/16 00:34:24;;;;;;;96.68;47.35;;;-4.10;85.80;;;;;;5075287;28;20521;-74
2022/12/16 00:36:50;;;;;;;95.13;46.23;;;-4.10;86.40;;;;;;5074566;28;20463;-74
2022/12/16 00:39:16;;;;;;;90.43;47.08;;;-4.20;86.50;;;;;;5074669;28;20399;-74
2022/12/16 00:41:41;;;;;;;94.77;47.10;;;-4.20;86.50;;;;;;5072492;28;20934;-73
2022/12/16 00:44:08;;;;;;;92.13;46.00;;;-4.20;87.00;;;;;;5074391;28;20407;-73
2022/12/16 00:46:33;;;;;;;91.82;45.00;;;-4.10;85.80;;;;;;5074210;28;20395;-74
2022/12/16 00:48:59;;;;;;;88.63;45.40;;;-4.20;85.10;;;;;;5074939;28;20383;-74
2022/12/16 00:51:24;;;;;;;103.85;52.00;;;-4.30;86.00;;;;;;5072512;28;20751;-73
2022/12/16 00:53:50;;;;;;;94.53;46.47;;;-4.30;87.70;;;;;;5074851;28;20426;-72
2022/12/16 00:56:19;;;;;;;94.15;46.58;;;-4.20;87.60;;;;;;5074993;28;20376;-72
2022/12/16 00:58:45;;;;;;;94.53;46.70;;;-4.20;87.90;;;;;;5074838;28;20468;-74
2022/12/16 01:01:11;;;;;;;100.55;47.40;;;-4.20;88.20;;;;;;5072273;28;20388;-74
2022/12/16 01:03:37;;;;;;;93.32;45.88;;;-4.20;88.00;;;;;;5074365;28;20428;-73
2022/12/16 01:06:10;;;;;;;96.80;47.60;;;-4.10;87.30;;;;;;5073632;28;20471;-73
2022/12/16 01:08:36;;;;;;;88.63;45.70;;;-4.10;87.90;;;;;;5073499;28;20414;-73
2022/12/16 01:11:02;;;;;;;90.20;45.73;;;-4.10;87.40;;;;;;5071312;28;20432;-72
2022/12/16 01:13:27;;;;;;;97.13;46.10;;;-4.10;87.50;;;;;;5073170;28;20415;-73
2022/12/16 01:15:53;;;;;;;93.88;46.67;;;-4.10;87.80;;;;;;5073112;28;20388;-72
2022/12/16 01:18:19;;;;;;;93.43;45.63;;;-4.10;87.20;;;;;;5073344;28;20865;-72
2022/12/16 01:20:45;;;;;;;93.47;45.95;;;-4.10;86.60;;;;;;5072455;28;20380;-73
2022/12/16 01:23:11;;;;;;;97.63;46.80;;;-4.00;86.00;;;;;;5072930;28;20458;-74
2022/12/16 01:25:36;;;;;;;95.10;47.57;;;-4.10;85.10;;;;;;5073256;28;20380;-73
2022/12/16 01:28:02;;;;;;;98.73;47.50;;;-4.20;84.80;;;;;;5073098;28;20399;-74
2022/12/16 01:30:28;;;;;;;96.93;47.88;;;-4.30;85.10;;;;;;5073179;28;20400;-73
2022/12/16 01:32:53;;;;;;;98.25;47.72;;;-4.30;86.40;;;;;;5072918;28;20384;-73
2022/12/16 01:35:19;;;;;;;96.40;47.80;;;-4.30;87.40;;;;;;5073877;28;20386;-73
2022/12/16 01:37:44;;;;;;;97.95;46.60;;;-4.20;87.20;;;;;;5073041;28;20383;-73
2022/12/16 01:40:19;;;;;;;105.00;46.97;;;-4.20;86.60;;;;;;5073148;28;20457;-73
2022/12/16 01:42:45;;;;;;;90.00;45.83;;;-4.30;85.50;;;;;;5072654;28;20380;-73
2022/12/16 01:45:40;;;;;;;96.15;47.70;;;-4.30;86.30;;;;;;5073061;28;20482;-74
2022/12/16 01:48:38;;;;;;;96.83;48.07;;;-4.30;85.60;;;;;;5072425;28;20392;-74
2022/12/16 01:51:19;;;;;;;93.72;47.58;;;-4.30;85.80;;;;;;5072338;28;20411;-73
2022/12/16 01:53:48;;;;;;;96.55;48.88;;;-4.20;85.30;;;;;;5073142;28;20379;-73
2022/12/16 01:56:16;;;;;;;99.30;47.10;;;-4.20;85.50;;;;;;5073275;28;20380;-73
2022/12/16 01:58:42;;;;;;;92.40;47.53;;;-4.30;85.50;;;;;;5073884;28;20472;-73
2022/12/16 02:01:08;;;;;;;91.47;46.78;;;-4.30;85.80;;;;;;5072809;28;20473;-73
2022/12/16 02:03:35;;;;;;;99.07;47.93;;;-4.30;83.60;;;;;;5072109;28;20521;-73
2022/12/16 02:06:03;;;;;;;97.68;46.05;;;-4.30;83.80;;;;;;5073861;28;20419;-74
2022/12/16 02:08:29;;;;;;;101.63;48.78;;;-4.20;82.80;;;;;;5074949;28;20380;-73
2022/12/16 02:11:33;;;;;;;102.43;50.97;;;-4.30;82.00;;;;;;5074288;28;20404;-73
2022/12/16 02:14:33;;;;;;;99.35;48.42;;;-4.40;82.70;;;;;;5074638;28;20737;-73
2022/12/16 02:17:17;;;;;;;98.65;48.97;;;-4.50;83.40;;;;;;5071699;28;20396;-73
2022/12/16 02:20:17;;;;;;;100.57;48.45;;;-4.60;84.10;;;;;;5073691;28;20410;-75
2022/12/16 02:23:11;;;;;;;104.87;51.50;;;-4.60;84.40;;;;;;5071575;28;20462;-73
2022/12/16 02:25:56;;;;;;;98.43;49.35;;;-4.60;85.10;;;;;;5085744;28;20383;-74
2022/12/16 02:28:50;;;;;;;91.82;45.83;;;-4.60;86.10;;;;;;5076801;28;20387;-74
2022/12/16 02:31:19;;;;;;;101.80;48.90;;;-4.60;86.20;;;;;;5087537;28;20387;-73
2022/12/16 02:33:48;;;;;;;100.95;48.65;;;-4.70;86.20;;;;;;5084609;28;20767;-72
2022/12/16 02:36:47;;;;;;;90.57;46.88;;;-4.70;86.10;;;;;;5072067;28;20638;-73
2022/12/16 02:39:36;;;;;;;95.72;47.00;;;-4.60;86.00;;;;;;5071382;28;20387;-74
2022/12/16 02:42:12;;;;;;;93.50;46.88;;;-4.60;86.30;;;;;;5071140;28;20375;-74
2022/12/16 02:45:01;;;;;;;92.68;44.80;;;-4.60;85.00;;;;;;5071957;28;20903;-73
2022/12/16 02:47:28;;;;;;;86.28;45.00;;;-4.70;85.10;;;;;;5071448;28;20842;-74
2022/12/16 02:49:54;;;;;;;93.35;47.25;;;-4.60;84.70;;;;;;5071050;28;20395;-73
2022/12/16 02:52:27;;;;;;;95.72;46.75;;;-4.60;84.90;;;;;;5070496;28;20775;-73
2022/12/16 02:55:00;;;;;;;94.00;47.20;;;-4.70;85.10;;;;;;5070888;28;20459;-72
2022/12/16 02:57:58;;;;;;;92.15;47.50;;;-4.60;84.50;;;;;;5069694;28;20478;-72
2022/12/16 03:00:28;;;;;;;94.40;46.10;;;-4.60;84.00;;;;;;5071123;28;20384;-72
2022/12/16 03:03:16;;;;;;;94.55;46.55;;;-4.70;84.30;;;;;;5070602;28;20753;-72
2022/12/16 03:05:47;;;;;;;96.88;47.45;;;-4.70;83.50;;;;;;5069960;28;20398;-72
2022/12/16 03:08:19;;;;;;;88.80;45.95;;;-4.70;83.10;;;;;;5071436;28;20380;-72
2022/12/16 03:10:49;;;;;;;94.82;47.13;;;-4.60;82.80;;;;;;5070153;28;20411;-72
2022/12/16 03:13:18;;;;;;;92.72;46.20;;;-4.60;82.90;;;;;;5070484;28;20388;-72
2022/12/16 03:15:47;;;;;;;87.78;45.85;;;-4.60;83.10;;;;;;5070836;28;20403;-72
2022/12/16 03:18:13;;;;;;;89.70;45.72;;;-4.60;82.40;;;;;;5071142;28;20383;-73
2022/12/16 03:20:48;;;;;;;93.50;46.00;;;-4.60;81.60;;;;;;5069782;28;20422;-73
2022/12/16 03:23:18;;;;;;;88.18;45.45;;;-4.60;81.10;;;;;;5070449;28;20391;-73
2022/12/16 03:25:47;;;;;;;90.00;45.50;;;-4.60;81.40;;;;;;5070891;28;20394;-73
2022/12/16 03:28:34;;;;;;;91.00;44.65;;;-4.60;80.90;;;;;;5069525;28;20402;-73
2022/12/16 03:31:42;;;;;;;87.65;44.85;;;-4.60;80.90;;;;;;5069889;28;20407;-72
2022/12/16 03:34:11;;;;;;;89.35;45.75;;;-4.60;80.40;;;;;;5066458;28;20812;-72
2022/12/16 03:36:40;;;;;;;78.57;42.70;;;-4.70;79.90;;;;;;5070773;28;20470;-72
2022/12/16 03:39:08;;;;;;;88.57;44.70;;;-4.70;79.00;;;;;;5069513;28;20412;-71
2022/12/16 03:41:34;;;;;;;90.80;45.10;;;-4.70;79.40;;;;;;5070145;28;20435;-71
2022/12/16 03:44:00;;;;;;;91.23;43.87;;;-4.70;79.30;;;;;;5069684;28;20433;-72
2022/12/16 03:46:26;;;;;;;90.13;45.05;;;-4.70;79.20;;;;;;5070582;28;20744;-72
2022/12/16 03:48:52;;;;;;;89.28;44.15;;;-4.70;79.60;;;;;;5070477;28;20380;-72
2022/12/16 03:51:18;;;;;;;84.97;44.65;;;-4.70;80.30;;;;;;5069870;28;20380;-72
2022/12/16 03:53:44;;;;;;;87.45;43.80;;;-4.70;80.40;;;;;;5070429;28;20399;-73
2022/12/16 03:56:11;;;;;;;84.45;42.85;;;-4.70;79.20;;;;;;5070594;28;20454;-73
2022/12/16 03:58:39;;;;;;;89.47;44.45;;;-4.70;78.90;;;;;;5070475;28;20450;-73
2022/12/16 04:01:06;;;;;;;88.28;43.95;;;-4.80;79.20;;;;;;5069602;28;20403;-72
2022/12/16 04:03:32;;;;;;;89.88;44.47;;;-4.70;80.20;;;;;;5070376;28;20752;-73
2022/12/16 04:05:57;;;;;;;87.00;44.42;;;-4.70;79.80;;;;;;5070287;28;20392;-73
2022/12/16 04:08:23;;;;;;;84.75;43.97;;;-4.70;79.10;;;;;;5070364;28;20391;-73
2022/12/16 04:24:34;;;;;;;84.70;43.88;;;-4.80;80.70;;;;;;5071104;28;20924;-73
2022/12/16 04:34:24;;;;;;;97.18;45.95;;;-4.80;79.60;;;;;;5069873;28;20379;-73
